createdAt,value
2018-10-05T00:01:27.838Z,15.40
2018-10-05T00:03:55.356Z,15.40
2018-10-05T00:06:22.871Z,15.40
2018-10-05T00:08:50.428Z,15.40
2018-10-05T00:11:17.939Z,15.30
2018-10-05T00:13:45.440Z,15.40
2018-10-05T00:16:12.953Z,15.40
2018-10-05T00:18:40.447Z,15.30
2018-10-05T00:21:07.935Z,15.40
2018-10-05T00:23:35.475Z,15.40
2018-10-05T00:26:03.200Z,15.30
2018-10-05T00:28:30.683Z,15.30
2018-10-05T00:30:58.178Z,15.40
2018-10-05T00:33:25.691Z,15.40
2018-10-05T00:35:53.187Z,15.40
2018-10-05T00:38:20.660Z,15.30
2018-10-05T00:40:48.833Z,15.30
2018-10-05T00:43:16.345Z,15.30
2018-10-05T00:45:43.824Z,15.30
2018-10-05T00:48:11.302Z,15.30
2018-10-05T00:50:38.801Z,15.30
2018-10-05T00:53:06.400Z,15.20
2018-10-05T00:55:33.837Z,15.20
2018-10-05T00:58:01.345Z,15.20
2018-10-05T01:00:28.886Z,15.20
2018-10-05T01:02:56.391Z,15.20
2018-10-05T01:05:23.883Z,15.20
2018-10-05T01:07:51.412Z,15.20
2018-10-05T01:10:18.894Z,15.30
2018-10-05T01:12:46.382Z,15.20
2018-10-05T01:15:13.866Z,15.20
2018-10-05T01:17:41.356Z,15.20
2018-10-05T01:20:08.843Z,15.20
2018-10-05T01:22:36.341Z,15.10
2018-10-05T01:25:03.850Z,15.10
2018-10-05T01:27:31.339Z,15.10
2018-10-05T01:29:58.966Z,15.10
2018-10-05T01:32:26.468Z,15.10
2018-10-05T01:34:53.977Z,15.10
2018-10-05T01:37:21.470Z,15.10
2018-10-05T01:39:48.957Z,15.00
2018-10-05T01:42:16.800Z,14.90
2018-10-05T01:44:44.608Z,15.00
2018-10-05T01:47:12.087Z,14.90
2018-10-05T01:49:39.595Z,14.80
2018-10-05T01:52:07.083Z,14.80
2018-10-05T01:54:34.600Z,14.80
2018-10-05T01:57:02.088Z,14.70
2018-10-05T01:59:29.585Z,14.70
2018-10-05T02:01:57.116Z,14.70
2018-10-05T02:04:24.612Z,14.40
2018-10-05T02:06:52.086Z,14.60
2018-10-05T02:09:19.571Z,14.50
2018-10-05T02:11:47.052Z,14.50
2018-10-05T02:14:14.543Z,14.50
2018-10-05T02:16:42.020Z,14.50
2018-10-05T02:19:09.529Z,14.50
2018-10-05T02:21:37.019Z,14.50
2018-10-05T02:24:04.504Z,14.50
2018-10-05T02:26:31.987Z,14.50
2018-10-05T02:28:59.495Z,14.50
2018-10-05T02:31:26.972Z,14.50
2018-10-05T02:33:54.455Z,14.50
2018-10-05T02:36:23.112Z,14.50
2018-10-05T02:38:50.594Z,14.50
2018-10-05T02:41:18.079Z,14.60
2018-10-05T02:43:45.601Z,14.50
2018-10-05T02:46:13.108Z,14.60
2018-10-05T02:48:40.589Z,14.60
2018-10-05T02:51:08.120Z,14.60
2018-10-05T02:53:35.682Z,14.60
2018-10-05T02:56:03.171Z,14.50
2018-10-05T02:58:30.642Z,14.50
2018-10-05T03:01:09.931Z,14.50
2018-10-05T03:03:37.433Z,14.50
2018-10-05T03:06:04.980Z,14.50
2018-10-05T03:08:32.477Z,14.50
2018-10-05T03:11:00.171Z,14.50
2018-10-05T03:13:27.672Z,14.50
2018-10-05T03:15:55.198Z,14.50
2018-10-05T03:18:22.700Z,14.50
2018-10-05T03:20:50.197Z,14.40
2018-10-05T03:23:17.686Z,14.40
2018-10-05T03:25:45.227Z,14.30
2018-10-05T03:28:12.732Z,14.30
2018-10-05T03:30:40.227Z,14.30
2018-10-05T03:33:07.748Z,14.30
2018-10-05T03:35:35.252Z,14.20
2018-10-05T03:38:02.759Z,14.30
2018-10-05T03:40:30.278Z,14.20
2018-10-05T03:42:57.779Z,14.20
2018-10-05T03:45:25.281Z,14.10
2018-10-05T03:47:52.819Z,14.10
2018-10-05T03:50:20.307Z,14.10
2018-10-05T03:52:47.809Z,14.10
2018-10-05T03:55:15.315Z,14.10
2018-10-05T03:57:42.831Z,14.00
2018-10-05T04:00:10.339Z,14.10
2018-10-05T04:02:37.835Z,14.10
2018-10-05T04:05:05.319Z,14.10
2018-10-05T04:07:32.835Z,14.10
2018-10-05T04:10:00.324Z,14.10
2018-10-05T04:12:27.886Z,14.10
2018-10-05T04:14:55.383Z,14.10
2018-10-05T04:17:22.888Z,14.10
2018-10-05T04:19:50.412Z,14.10
2018-10-05T04:22:20.944Z,14.10
2018-10-05T04:24:48.445Z,14.00
2018-10-05T04:27:15.974Z,14.00
2018-10-05T04:29:43.454Z,14.00
2018-10-05T04:32:10.950Z,14.00
2018-10-05T04:34:38.435Z,13.90
2018-10-05T04:37:05.928Z,13.90
2018-10-05T04:39:33.399Z,13.90
2018-10-05T04:42:00.907Z,13.80
2018-10-05T04:44:28.448Z,13.70
2018-10-05T04:46:55.975Z,13.70
2018-10-05T04:49:23.479Z,13.80
2018-10-05T04:51:50.966Z,13.70
2018-10-05T04:54:18.540Z,13.70
2018-10-05T04:56:46.059Z,13.70
2018-10-05T04:59:13.541Z,13.70
2018-10-05T05:01:41.091Z,13.70
2018-10-05T05:04:08.582Z,13.70
2018-10-05T05:06:36.098Z,13.70
2018-10-05T05:09:04.724Z,13.70
2018-10-05T05:11:32.216Z,13.70
2018-10-05T05:13:59.731Z,13.70
2018-10-05T05:16:27.250Z,13.70
2018-10-05T05:18:54.736Z,13.70
2018-10-05T05:21:22.223Z,13.70
2018-10-05T05:23:49.719Z,13.70
2018-10-05T05:26:17.233Z,13.70
2018-10-05T05:28:44.764Z,13.80
2018-10-05T05:31:12.280Z,13.80
2018-10-05T05:33:39.814Z,13.80
2018-10-05T05:36:08.394Z,13.80
2018-10-05T05:38:36.026Z,13.80
2018-10-05T05:41:03.560Z,13.80
2018-10-05T05:43:31.340Z,13.80
2018-10-05T05:45:58.848Z,13.80
2018-10-05T05:48:26.362Z,13.80
2018-10-05T05:50:53.860Z,13.80
2018-10-05T05:53:21.379Z,13.80
2018-10-05T05:55:49.020Z,13.80
2018-10-05T05:58:16.707Z,13.80
2018-10-05T06:00:44.212Z,13.80
2018-10-05T06:03:11.701Z,13.70
2018-10-05T06:05:39.329Z,13.80
2018-10-05T06:08:06.843Z,13.80
2018-10-05T06:10:34.432Z,13.80
2018-10-05T06:13:01.979Z,13.90
2018-10-05T06:15:29.456Z,13.90
2018-10-05T06:17:56.938Z,13.90
2018-10-05T06:20:24.496Z,13.90
2018-10-05T06:22:51.999Z,13.90
2018-10-05T06:25:19.580Z,13.90
2018-10-05T06:27:47.070Z,13.90
2018-10-05T06:30:14.548Z,13.90
2018-10-05T06:32:42.045Z,13.90
2018-10-05T06:35:09.556Z,13.90
2018-10-05T06:37:37.051Z,14.00
2018-10-05T06:40:04.700Z,14.00
2018-10-05T06:42:32.226Z,14.00
2018-10-05T06:44:59.688Z,14.00
2018-10-05T06:47:27.183Z,14.00
2018-10-05T06:49:54.691Z,14.10
2018-10-05T06:52:22.183Z,14.10
2018-10-05T06:54:49.659Z,14.10
2018-10-05T06:57:17.737Z,14.20
2018-10-05T06:59:45.216Z,14.20
2018-10-05T07:02:12.691Z,14.20
2018-10-05T07:04:40.172Z,14.20
2018-10-05T07:07:07.702Z,14.30
2018-10-05T07:09:35.269Z,14.30
2018-10-05T07:12:02.751Z,14.30
2018-10-05T07:14:30.280Z,14.30
2018-10-05T07:16:57.806Z,14.40
2018-10-05T07:19:25.302Z,14.40
2018-10-05T07:21:52.826Z,14.40
2018-10-05T07:24:20.310Z,14.50
2018-10-05T07:26:47.866Z,14.50
2018-10-05T07:29:15.359Z,14.50
2018-10-05T07:31:42.828Z,14.60
2018-10-05T07:34:10.349Z,14.60
2018-10-05T07:36:37.894Z,14.60
2018-10-05T07:39:07.071Z,14.70
2018-10-05T07:41:34.579Z,14.70
2018-10-05T07:44:02.109Z,14.70
2018-10-05T07:46:29.916Z,14.70
2018-10-05T07:48:57.418Z,14.80
2018-10-05T07:51:24.924Z,14.80
2018-10-05T07:53:52.427Z,14.90
2018-10-05T07:56:19.937Z,14.90
2018-10-05T07:58:47.480Z,14.90
2018-10-05T08:01:14.984Z,15.00
2018-10-05T08:03:42.516Z,15.00
2018-10-05T08:06:10.015Z,15.00
2018-10-05T08:08:37.514Z,15.10
2018-10-05T08:11:05.612Z,15.10
2018-10-05T08:13:33.137Z,15.10
2018-10-05T08:16:00.664Z,15.20
2018-10-05T08:18:28.160Z,15.20
2018-10-05T08:20:55.707Z,15.30
2018-10-05T08:23:23.280Z,15.40
2018-10-05T08:25:50.808Z,15.40
2018-10-05T08:28:18.292Z,15.50
2018-10-05T08:30:45.856Z,15.50
2018-10-05T08:33:13.330Z,15.60
2018-10-05T08:35:40.837Z,15.60
2018-10-05T08:38:08.427Z,15.60
2018-10-05T08:40:35.952Z,15.60
2018-10-05T08:43:03.511Z,15.70
2018-10-05T08:45:31.022Z,15.80
2018-10-05T08:47:58.511Z,15.80
2018-10-05T08:50:26.026Z,15.90
2018-10-05T08:52:53.567Z,15.90
2018-10-05T08:55:21.051Z,15.90
2018-10-05T08:57:48.530Z,15.90
2018-10-05T09:00:16.066Z,16.00
2018-10-05T09:02:43.554Z,16.10
2018-10-05T09:05:11.088Z,16.10
2018-10-05T09:07:38.579Z,16.10
2018-10-05T09:10:06.348Z,16.20
2018-10-05T09:12:33.871Z,16.20
2018-10-05T09:15:01.448Z,16.30
2018-10-05T09:17:28.947Z,16.30
2018-10-05T09:19:56.456Z,16.40
2018-10-05T09:22:23.943Z,16.40
2018-10-05T09:24:51.627Z,16.50
2018-10-05T09:27:19.197Z,16.60
2018-10-05T09:29:46.974Z,16.60
2018-10-05T09:32:14.456Z,16.60
2018-10-05T09:34:41.967Z,16.70
2018-10-05T09:37:09.464Z,16.80
2018-10-05T09:39:37.124Z,16.80
2018-10-05T09:42:04.611Z,16.90
2018-10-05T09:44:32.159Z,16.90
2018-10-05T09:46:59.692Z,17.00
2018-10-05T09:49:27.199Z,17.10
2018-10-05T09:51:54.824Z,17.20
2018-10-05T09:54:22.347Z,17.30
2018-10-05T09:56:49.879Z,17.50
2018-10-05T09:59:17.403Z,17.60
2018-10-05T10:02:54.212Z,17.80
2018-10-05T10:05:22.449Z,18.00
2018-10-05T10:07:50.004Z,18.30
2018-10-05T10:10:17.523Z,18.40
2018-10-05T10:12:45.027Z,18.60
2018-10-05T10:15:12.516Z,18.60
2018-10-05T10:17:40.007Z,18.80
2018-10-05T10:20:07.506Z,18.90
2018-10-05T10:22:35.119Z,19.00
2018-10-05T10:25:02.637Z,19.10
2018-10-05T10:27:30.132Z,19.20
2018-10-05T10:29:57.641Z,19.20
2018-10-05T10:32:25.131Z,19.20
2018-10-05T10:34:52.645Z,19.30
2018-10-05T10:37:20.155Z,19.40
2018-10-05T10:39:47.749Z,19.40
2018-10-05T10:42:15.196Z,19.40
2018-10-05T10:44:42.728Z,19.30
2018-10-05T10:47:10.247Z,19.40
2018-10-05T10:49:37.763Z,19.40
2018-10-05T10:52:05.312Z,19.30
2018-10-05T10:54:32.835Z,19.20
2018-10-05T10:57:00.348Z,19.30
2018-10-05T10:59:28.031Z,19.20
2018-10-05T11:01:55.565Z,19.30
2018-10-05T11:04:23.138Z,19.30
2018-10-05T11:06:50.644Z,19.30
2018-10-05T11:09:18.145Z,19.40
2018-10-05T11:11:45.650Z,19.40
2018-10-05T11:14:13.180Z,19.50
2018-10-05T11:16:40.730Z,19.50
2018-10-05T11:19:08.273Z,19.60
2018-10-05T11:21:35.808Z,19.60
2018-10-05T11:24:03.380Z,19.50
2018-10-05T11:26:30.895Z,19.60
2018-10-05T11:28:58.429Z,19.50
2018-10-05T11:31:25.952Z,19.60
2018-10-05T11:33:53.468Z,19.60
2018-10-05T11:36:21.033Z,19.60
2018-10-05T11:38:48.540Z,19.60
2018-10-05T11:41:16.048Z,19.70
2018-10-05T11:43:43.587Z,19.60
2018-10-05T11:46:11.328Z,19.60
2018-10-05T11:48:38.855Z,19.70
2018-10-05T11:51:06.496Z,19.70
2018-10-05T11:53:33.987Z,19.80
2018-10-05T11:56:01.488Z,19.80
2018-10-05T11:58:29.037Z,19.80
2018-10-05T12:00:56.555Z,19.80
2018-10-05T12:03:24.075Z,19.80
2018-10-05T12:05:51.567Z,19.80
2018-10-05T12:08:19.076Z,19.90
2018-10-05T12:10:46.592Z,19.80
2018-10-05T12:13:14.196Z,19.80
2018-10-05T12:15:41.700Z,19.90
2018-10-05T12:18:09.200Z,19.90
2018-10-05T12:20:36.717Z,19.90
2018-10-05T12:23:04.235Z,19.90
2018-10-05T12:25:31.856Z,20.00
2018-10-05T12:27:59.355Z,19.90
2018-10-05T12:30:26.875Z,20.00
2018-10-05T12:32:54.475Z,20.00
2018-10-05T12:35:22.100Z,20.00
2018-10-05T12:37:49.607Z,20.00
2018-10-05T12:40:17.104Z,20.10
2018-10-05T12:42:44.664Z,20.10
2018-10-05T12:45:12.314Z,20.10
2018-10-05T12:47:39.881Z,20.20
2018-10-05T12:50:07.504Z,20.20
2018-10-05T12:52:34.975Z,20.30
2018-10-05T12:55:02.459Z,20.30
2018-10-05T12:57:29.992Z,20.30
2018-10-05T12:59:57.489Z,20.40
2018-10-05T13:02:24.991Z,20.50
2018-10-05T13:04:52.551Z,20.60
2018-10-05T13:07:20.022Z,20.70
2018-10-05T13:09:47.527Z,20.80
2018-10-05T13:12:15.020Z,20.80
2018-10-05T13:14:42.486Z,20.90
2018-10-05T13:17:09.988Z,21.00
2018-10-05T13:19:37.475Z,21.00
2018-10-05T13:22:05.033Z,21.10
2018-10-05T13:24:32.518Z,21.10
2018-10-05T13:27:00.016Z,21.20
2018-10-05T13:29:27.519Z,21.20
2018-10-05T13:31:55.023Z,21.20
2018-10-05T13:34:22.505Z,21.20
2018-10-05T13:36:50.001Z,21.10
2018-10-05T13:39:17.504Z,21.10
2018-10-05T13:41:45.104Z,21.10
2018-10-05T13:44:12.574Z,21.10
2018-10-05T13:46:40.146Z,21.10
2018-10-05T13:49:07.651Z,21.00
2018-10-05T13:51:36.211Z,21.00
2018-10-05T13:54:04.083Z,20.90
2018-10-05T13:56:31.624Z,20.90
2018-10-05T13:58:59.153Z,20.90
2018-10-05T14:01:26.699Z,20.90
2018-10-05T14:03:54.211Z,20.90
2018-10-05T14:06:21.699Z,20.90
2018-10-05T14:08:49.229Z,20.80
2018-10-05T14:11:16.746Z,20.80
2018-10-05T14:13:44.251Z,20.90
2018-10-05T14:16:11.751Z,20.80
2018-10-05T14:18:39.353Z,20.80
2018-10-05T14:21:06.860Z,20.80
2018-10-05T14:23:34.369Z,20.80
2018-10-05T14:26:01.882Z,20.80
2018-10-05T14:28:29.400Z,20.80
2018-10-05T14:30:56.939Z,20.80
2018-10-05T14:33:24.439Z,20.80
2018-10-05T14:35:51.943Z,20.80
2018-10-05T14:38:19.468Z,20.80
2018-10-05T14:40:47.055Z,20.80
2018-10-05T14:43:14.592Z,20.80
2018-10-05T14:45:42.133Z,20.80
2018-10-05T14:48:09.992Z,20.80
2018-10-05T14:50:37.476Z,20.80
2018-10-05T14:53:04.975Z,20.80
2018-10-05T14:55:32.479Z,20.80
2018-10-05T14:57:59.975Z,20.80
2018-10-05T15:00:27.571Z,20.80
2018-10-05T15:02:55.127Z,20.80
2018-10-05T15:05:22.639Z,20.80
2018-10-05T15:07:50.120Z,20.80
2018-10-05T15:10:17.626Z,20.80
2018-10-05T15:12:45.132Z,20.80
2018-10-05T15:15:12.699Z,20.80
2018-10-05T15:17:40.328Z,20.90
2018-10-05T15:20:07.863Z,20.90
2018-10-05T15:22:35.392Z,21.00
2018-10-05T15:25:02.910Z,21.00
2018-10-05T15:27:30.445Z,21.10
2018-10-05T15:29:57.990Z,21.10
2018-10-05T15:32:25.539Z,21.10
2018-10-05T15:34:53.079Z,21.00
2018-10-05T15:37:20.591Z,21.00
2018-10-05T15:39:48.117Z,21.00
2018-10-05T15:42:15.699Z,21.00
2018-10-05T15:44:43.192Z,21.00
2018-10-05T15:47:13.001Z,21.00
2018-10-05T15:49:40.864Z,21.00
2018-10-05T15:52:08.477Z,21.10
2018-10-05T15:54:35.991Z,20.90
2018-10-05T15:57:03.644Z,20.90
2018-10-05T15:59:31.924Z,20.90
2018-10-05T16:01:59.417Z,20.80
2018-10-05T16:04:27.434Z,20.80
2018-10-05T16:06:54.959Z,20.80
2018-10-05T16:09:22.480Z,20.50
2018-10-05T16:11:50.303Z,20.90
2018-10-05T16:14:18.004Z,20.80
2018-10-05T16:16:45.679Z,20.70
2018-10-05T16:19:13.206Z,20.70
2018-10-05T16:21:40.824Z,20.70
2018-10-05T16:24:14.932Z,20.60
2018-10-05T16:26:42.471Z,20.60
2018-10-05T16:29:09.983Z,20.50
2018-10-05T16:31:37.508Z,20.40
2018-10-05T16:34:05.167Z,20.40
2018-10-05T16:36:32.668Z,20.30
2018-10-05T16:39:00.189Z,20.20
2018-10-05T16:41:27.744Z,20.10
2018-10-05T16:43:55.258Z,20.00
2018-10-05T16:46:22.779Z,20.00
2018-10-05T16:48:50.307Z,19.90
2018-10-05T16:51:17.798Z,19.90
2018-10-05T16:53:45.307Z,19.80
2018-10-05T16:56:12.876Z,19.70
2018-10-05T16:58:40.518Z,19.70
2018-10-05T17:01:08.080Z,19.60
2018-10-05T17:03:35.607Z,19.50
2018-10-05T17:06:03.987Z,19.40
2018-10-05T17:08:33.660Z,19.40
2018-10-05T17:11:01.222Z,19.20
2018-10-05T17:13:28.683Z,19.20
2018-10-05T17:15:56.227Z,19.00
2018-10-05T17:18:23.795Z,19.00
2018-10-05T17:20:51.357Z,18.90
2018-10-05T17:23:18.880Z,18.90
2018-10-05T17:25:46.452Z,18.90
2018-10-05T17:28:13.946Z,18.80
2018-10-05T17:30:41.443Z,18.70
2018-10-05T17:33:08.951Z,18.70
2018-10-05T17:35:36.491Z,18.60
2018-10-05T17:38:04.100Z,18.60
2018-10-05T17:40:31.551Z,18.50
2018-10-05T17:42:59.076Z,18.50
2018-10-05T17:45:26.567Z,18.40
2018-10-05T17:47:54.084Z,18.40
2018-10-05T17:50:21.593Z,18.30
2018-10-05T17:52:49.171Z,18.20
2018-10-05T17:55:17.218Z,18.10
2018-10-05T17:57:44.659Z,18.10
2018-10-05T18:00:12.215Z,18.00
2018-10-05T18:02:39.711Z,18.00
2018-10-05T18:05:07.207Z,17.90
2018-10-05T18:07:34.743Z,18.00
2018-10-05T18:10:02.374Z,17.90
2018-10-05T18:12:29.919Z,17.90
2018-10-05T18:14:57.535Z,17.80
2018-10-05T18:17:25.065Z,17.50
2018-10-05T18:19:52.650Z,17.80
2018-10-05T18:22:20.162Z,17.80
2018-10-05T18:24:47.742Z,17.70
2018-10-05T18:27:15.251Z,17.70
2018-10-05T18:29:42.770Z,17.60
2018-10-05T18:32:10.292Z,17.60
2018-10-05T18:34:37.813Z,17.60
2018-10-05T18:37:05.335Z,17.50
2018-10-05T18:39:32.871Z,17.50
2018-10-05T18:42:00.363Z,17.50
2018-10-05T18:44:27.896Z,17.50
2018-10-05T18:46:55.415Z,17.40
2018-10-05T18:49:22.930Z,17.40
2018-10-05T18:51:50.436Z,17.40
2018-10-05T18:54:17.967Z,17.40
2018-10-05T18:56:56.921Z,17.30
2018-10-05T18:59:24.471Z,17.40
2018-10-05T19:01:51.944Z,17.30
2018-10-05T19:04:19.484Z,17.30
2018-10-05T19:06:46.974Z,17.30
2018-10-05T19:09:14.479Z,17.20
2018-10-05T19:11:41.971Z,17.20
2018-10-05T19:14:09.448Z,17.10
2018-10-05T19:16:37.931Z,17.10
2018-10-05T19:19:05.468Z,17.10
2018-10-05T19:21:32.984Z,17.10
2018-10-05T19:24:00.516Z,17.00
2018-10-05T19:26:28.123Z,17.00
2018-10-05T19:28:55.527Z,17.00
2018-10-05T19:31:23.234Z,16.90
2018-10-05T19:33:50.759Z,16.90
2018-10-05T19:36:18.301Z,16.90
2018-10-05T19:38:45.798Z,16.90
2018-10-05T19:41:13.936Z,16.80
2018-10-05T19:43:41.968Z,16.80
2018-10-05T19:46:09.471Z,16.80
2018-10-05T19:48:36.980Z,16.70
2018-10-05T19:51:04.491Z,16.70
2018-10-05T19:53:32.232Z,16.60
2018-10-05T19:55:59.681Z,16.60
2018-10-05T19:58:27.185Z,16.60
2018-10-05T20:00:54.707Z,16.60
2018-10-05T20:03:22.223Z,16.60
2018-10-05T20:05:49.867Z,16.60
2018-10-05T20:08:17.374Z,16.60
2018-10-05T20:10:44.947Z,16.60
2018-10-05T20:13:12.529Z,16.50
2018-10-05T20:15:40.056Z,16.50
2018-10-05T20:18:07.877Z,16.50
2018-10-05T20:20:35.205Z,16.40
2018-10-05T20:23:02.796Z,16.40
2018-10-05T20:25:30.357Z,16.40
2018-10-05T20:27:58.162Z,16.40
2018-10-05T20:30:26.369Z,16.30
2018-10-05T20:32:53.939Z,16.30
2018-10-05T20:35:21.479Z,16.30
2018-10-05T20:37:49.297Z,16.30
2018-10-05T20:40:16.612Z,16.30
2018-10-05T20:42:44.891Z,16.30
2018-10-05T20:45:13.051Z,16.30
2018-10-05T20:47:41.707Z,16.20
2018-10-05T20:50:09.338Z,16.30
2018-10-05T20:52:36.837Z,16.20
2018-10-05T20:55:04.404Z,16.10
2018-10-05T20:57:31.936Z,16.10
2018-10-05T20:59:59.530Z,16.10
2018-10-05T21:02:27.060Z,16.10
2018-10-05T21:04:54.551Z,16.10
2018-10-05T21:07:22.045Z,16.20
2018-10-05T21:09:49.847Z,16.10
2018-10-05T21:12:17.258Z,16.10
2018-10-05T21:14:44.812Z,16.10
2018-10-05T21:17:12.444Z,16.00
2018-10-05T21:19:39.934Z,16.10
2018-10-05T21:22:07.425Z,16.00
2018-10-05T21:24:34.928Z,16.00
2018-10-05T21:27:02.443Z,16.00
2018-10-05T21:29:29.962Z,16.00
2018-10-05T21:31:57.484Z,15.90
2018-10-05T21:34:25.007Z,15.90
2018-10-05T21:36:52.502Z,15.90
2018-10-05T21:39:20.083Z,15.90
2018-10-05T21:41:47.663Z,15.90
2018-10-05T21:44:15.145Z,15.90
2018-10-05T21:46:42.651Z,15.90
2018-10-05T21:49:10.153Z,15.80
2018-10-05T21:51:37.643Z,15.80
2018-10-05T21:54:05.162Z,15.80
2018-10-05T21:56:32.637Z,15.80
2018-10-05T21:59:00.116Z,15.80
2018-10-05T22:01:27.619Z,15.70
2018-10-05T22:03:55.147Z,15.70
2018-10-05T22:06:22.686Z,15.70
2018-10-05T22:08:50.175Z,15.70
2018-10-05T22:11:17.676Z,15.70
2018-10-05T22:13:45.222Z,15.70
2018-10-05T22:16:12.743Z,15.70
2018-10-05T22:18:40.395Z,15.70
2018-10-05T22:21:08.310Z,15.70
2018-10-05T22:23:35.855Z,15.60
2018-10-05T22:26:03.547Z,15.60
2018-10-05T22:28:31.095Z,15.60
2018-10-05T22:30:58.632Z,15.60
2018-10-05T22:33:26.244Z,15.50
2018-10-05T22:35:53.750Z,15.50
2018-10-05T22:38:21.324Z,15.50
2018-10-05T22:40:48.813Z,15.50
2018-10-05T22:43:16.319Z,15.50
2018-10-05T22:45:43.812Z,15.40
2018-10-05T22:48:11.316Z,15.50
2018-10-05T22:50:38.859Z,15.40
2018-10-05T22:53:06.357Z,15.40
2018-10-05T22:55:33.873Z,15.30
2018-10-05T22:58:01.403Z,15.30
2018-10-05T23:00:28.879Z,15.40
2018-10-05T23:02:56.373Z,15.40
2018-10-05T23:05:23.882Z,15.30
2018-10-05T23:07:51.403Z,15.30
2018-10-05T23:10:18.923Z,15.30
2018-10-05T23:12:46.399Z,15.30
2018-10-05T23:15:13.879Z,15.30
2018-10-05T23:17:41.403Z,15.30
2018-10-05T23:20:08.896Z,15.30
2018-10-05T23:22:36.384Z,15.30
2018-10-05T23:25:03.951Z,15.30
2018-10-05T23:27:31.478Z,15.30
2018-10-05T23:29:58.980Z,15.30
2018-10-05T23:32:26.503Z,15.20
2018-10-05T23:34:53.998Z,15.20
2018-10-05T23:37:21.508Z,15.20
2018-10-05T23:39:48.985Z,15.10
2018-10-05T23:42:16.459Z,15.10
2018-10-05T23:44:43.985Z,15.10
2018-10-05T23:47:11.500Z,15.10
2018-10-05T23:49:39.003Z,15.10
2018-10-05T23:52:39.895Z,15.10
2018-10-05T23:55:07.475Z,15.10
2018-10-05T23:57:35.650Z,15.00
